YYJ weather

Victoria International Airport
Victoria, British Columbia, Canada

Public forecast

Using degrees Celsius for public forecast. Weather courtesy of forecast.io.

METAR (pilot weather report)

Retrieved 2019/03/26 22:00 UTC (2 minutes ago):

CYYJ 262200Z 15013KT 20SM FEW030 SCT050 BKN090 11/04 A3006 RMK SC1SC3AC1 SLP180

TAF (pilot weather forecast)

Retrieved 2019/03/26 18:42 UTC (3 hours ago):

TAF CYYJ 261741Z 2618/2718 14010KT P6SM SCT040 BKN100 TEMPO 2618/2703 5SM -SHRA BR BKN015 OVC040 FM270300 32007KT P6SM SCT030 TEMPO 2703/2718 BKN030 RMK NXT FCST BY 270000Z